Time;durP1;ratioP1;P1;durP2;ratioP2;P2;SDS_P1;SDS_P2;PMS_P1;PMS_P2;Temp;Humidity;BMP_temperature;BMP_pressure;BME280_temperature;BME280_humidity;BME280_pressure;Samples;Min_cycle;Max_cycle;Signal;HPM_P1;HPM_P2
2021/10/04 00:00:17;;;;;;;2.93;1.80;;;15.50;99.90;;;;;;5044401;28;20493;-86
2021/10/04 00:02:45;;;;;;;3.10;1.70;;;15.50;99.90;;;;;;5044634;28;20462;-86
2021/10/04 00:05:13;;;;;;;1.57;1.47;;;15.50;99.90;;;;;;5047046;28;20478;-86
2021/10/04 00:07:41;;;;;;;3.40;1.90;;;15.50;99.90;;;;;;5047458;28;20564;-84
2021/10/04 00:10:10;;;;;;;3.03;1.83;;;15.50;99.90;;;;;;5039730;28;20484;-87
2021/10/04 00:12:40;;;;;;;6.03;2.37;;;15.50;99.90;;;;;;5038186;28;20949;-85
2021/10/04 00:15:09;;;;;;;2.60;1.70;;;15.50;99.90;;;;;;5039626;28;20483;-86
2021/10/04 00:17:37;;;;;;;5.23;1.83;;;15.50;99.90;;;;;;5033983;28;20463;-86
2021/10/04 00:20:07;;;;;;;2.17;1.70;;;15.50;99.90;;;;;;5037765;28;21016;-86
2021/10/04 00:22:35;;;;;;;2.27;1.73;;;15.50;99.90;;;;;;5043864;28;20601;-85
2021/10/04 00:25:02;;;;;;;1.90;1.60;;;15.50;99.90;;;;;;5041013;28;20479;-85
2021/10/04 00:27:29;;;;;;;3.83;1.70;;;15.50;99.90;;;;;;5041829;28;20950;-87
2021/10/04 00:30:05;;;;;;;1.67;1.57;;;15.40;99.90;;;;;;5041406;28;21261;-85
2021/10/04 00:32:31;;;;;;;1.60;1.50;;;15.50;99.90;;;;;;5041155;28;20467;-84
2021/10/04 00:34:58;;;;;;;3.93;1.57;;;15.40;99.90;;;;;;5043470;28;20557;-86
2021/10/04 00:37:25;;;;;;;1.70;1.60;;;15.50;99.90;;;;;;5045622;28;20466;-86
2021/10/04 00:39:52;;;;;;;1.77;1.67;;;15.40;99.90;;;;;;5036685;28;20462;-86
2021/10/04 00:42:21;;;;;;;2.10;1.93;;;15.50;99.90;;;;;;5043638;28;20456;-84
2021/10/04 00:44:49;;;;;;;3.90;1.67;;;15.50;99.90;;;;;;5041210;28;20525;-86
2021/10/04 00:47:18;;;;;;;1.97;1.60;;;15.50;99.90;;;;;;5047771;28;20454;-86
2021/10/04 00:49:46;;;;;;;1.80;1.70;;;15.50;99.90;;;;;;5041740;28;20470;-86
2021/10/04 00:52:13;;;;;;;2.80;1.80;;;15.50;99.90;;;;;;5038798;28;20570;-85
2021/10/04 00:54:40;;;;;;;3.60;1.63;;;15.50;99.90;;;;;;5040192;28;20554;-84
2021/10/04 00:57:08;;;;;;;1.83;1.50;;;15.40;99.90;;;;;;5038999;28;20468;-86
2021/10/04 00:59:35;;;;;;;4.20;1.60;;;15.40;99.90;;;;;;5039237;28;21098;-85
2021/10/04 01:02:03;;;;;;;1.30;1.20;;;15.50;99.90;;;;;;5041962;28;20487;-86
2021/10/04 01:04:32;;;;;;;1.77;1.67;;;15.40;99.90;;;;;;5040691;28;20462;-86
2021/10/04 01:06:59;;;;;;;2.90;1.60;;;15.50;99.90;;;;;;5038214;28;20483;-85
2021/10/04 01:09:28;;;;;;;1.60;1.50;;;15.50;99.90;;;;;;5040411;28;20529;-86
2021/10/04 01:11:57;;;;;;;4.83;1.70;;;15.40;99.90;;;;;;5035742;28;20571;-86
2021/10/04 01:14:25;;;;;;;3.80;1.57;;;15.40;99.90;;;;;;5034837;28;20460;-85
2021/10/04 01:16:53;;;;;;;4.33;1.60;;;15.40;99.90;;;;;;5039735;28;20958;-86
2021/10/04 01:19:20;;;;;;;8.10;1.60;;;15.50;99.90;;;;;;5043029;28;20994;-86
2021/10/04 01:21:49;;;;;;;1.57;1.47;;;15.50;99.90;;;;;;5045670;28;20459;-87
2021/10/04 01:24:17;;;;;;;1.63;1.50;;;15.40;99.90;;;;;;5041691;28;20497;-85
2021/10/04 01:26:45;;;;;;;2.07;1.73;;;15.50;99.90;;;;;;5041199;28;20582;-86
2021/10/04 01:29:13;;;;;;;2.03;1.50;;;15.40;99.90;;;;;;5038838;28;20539;-85
2021/10/04 01:31:40;;;;;;;1.53;1.40;;;15.50;99.90;;;;;;5037925;28;20466;-86
2021/10/04 01:34:07;;;;;;;2.33;1.70;;;15.50;99.90;;;;;;5041063;28;20487;-86
2021/10/04 01:36:35;;;;;;;2.70;1.77;;;15.40;99.90;;;;;;5046080;28;20455;-84
2021/10/04 01:39:03;;;;;;;2.50;1.47;;;15.40;99.90;;;;;;5040297;28;20455;-85
2021/10/04 01:41:30;;;;;;;1.60;1.50;;;15.40;99.90;;;;;;5035997;28;20471;-85
2021/10/04 01:43:58;;;;;;;3.10;1.53;;;15.40;99.90;;;;;;5036938;28;20478;-84
2021/10/04 01:46:25;;;;;;;1.60;1.50;;;15.40;99.90;;;;;;5039343;28;20487;-85
2021/10/04 01:48:54;;;;;;;2.07;1.60;;;15.40;99.90;;;;;;5044873;28;20463;-85
2021/10/04 01:51:21;;;;;;;2.10;1.70;;;15.40;99.90;;;;;;5042106;28;20520;-85
2021/10/04 01:53:48;;;;;;;2.70;1.80;;;15.40;99.90;;;;;;5040108;28;20598;-86
2021/10/04 01:56:17;;;;;;;1.87;1.77;;;15.40;99.90;;;;;;5040337;28;20509;-85
2021/10/04 01:58:44;;;;;;;3.37;1.77;;;15.40;99.90;;;;;;5041732;28;20522;-85
2021/10/04 02:01:11;;;;;;;2.20;1.90;;;15.40;99.90;;;;;;5043121;28;20566;-86
2021/10/04 02:03:38;;;;;;;2.70;2.07;;;15.40;99.90;;;;;;5045762;28;20487;-86
2021/10/04 02:06:05;;;;;;;1.33;1.23;;;15.40;99.90;;;;;;5039590;28;20574;-85
2021/10/04 02:08:32;;;;;;;3.23;1.67;;;15.40;99.90;;;;;;5041338;28;20533;-84
2021/10/04 02:11:00;;;;;;;1.90;1.80;;;15.40;99.90;;;;;;5043448;28;20492;-85
2021/10/04 02:13:29;;;;;;;2.23;1.97;;;15.40;99.90;;;;;;5043414;28;20991;-85
2021/10/04 02:15:56;;;;;;;2.37;2.17;;;15.40;99.90;;;;;;5049718;28;20455;-85
2021/10/04 02:18:23;;;;;;;2.33;1.83;;;15.40;99.90;;;;;;5045883;28;20462;-87
2021/10/04 02:20:50;;;;;;;4.63;2.10;;;15.40;99.90;;;;;;5041406;28;20524;-85
2021/10/04 02:23:18;;;;;;;2.90;1.50;;;15.40;99.90;;;;;;5043437;28;20495;-85
2021/10/04 02:25:49;;;;;;;3.90;1.50;;;15.40;99.90;;;;;;5044581;28;20491;-85
2021/10/04 02:28:17;;;;;;;2.53;2.33;;;15.40;99.90;;;;;;5045301;28;20465;-86
2021/10/04 02:30:47;;;;;;;2.73;1.70;;;15.40;99.90;;;;;;5052789;28;20520;-84
2021/10/04 02:33:15;;;;;;;2.60;1.87;;;15.40;99.90;;;;;;5046133;28;20488;-86
2021/10/04 02:35:42;;;;;;;2.27;1.63;;;15.40;99.90;;;;;;5042726;28;20512;-85
2021/10/04 02:38:10;;;;;;;5.93;2.27;;;15.40;99.90;;;;;;5042956;28;20469;-86
2021/10/04 02:40:37;;;;;;;4.30;1.80;;;15.40;99.90;;;;;;5045391;28;20458;-86
2021/10/04 02:43:05;;;;;;;1.70;1.60;;;15.40;99.90;;;;;;5047300;28;20547;-85
2021/10/04 02:45:32;;;;;;;4.70;2.20;;;15.40;99.90;;;;;;5045274;28;20961;-85
2021/10/04 02:48:02;;;;;;;3.57;1.43;;;15.40;99.90;;;;;;5045261;28;20501;-86
2021/10/04 02:50:31;;;;;;;1.70;1.60;;;15.40;99.90;;;;;;5037982;28;20464;-85
2021/10/04 02:52:58;;;;;;;2.07;1.93;;;15.40;99.90;;;;;;5044634;28;20790;-84
2021/10/04 02:55:26;;;;;;;2.23;1.60;;;15.40;99.90;;;;;;5043796;28;20973;-87
2021/10/04 02:57:53;;;;;;;1.63;1.53;;;15.40;99.90;;;;;;5040433;28;20447;-85
2021/10/04 03:00:20;;;;;;;1.70;1.60;;;15.40;99.90;;;;;;5041554;28;20491;-85
2021/10/04 03:02:47;;;;;;;3.07;1.77;;;15.40;99.90;;;;;;5042613;28;20447;-87
2021/10/04 03:05:16;;;;;;;1.60;1.40;;;15.40;99.90;;;;;;5046239;28;20455;-85
2021/10/04 03:07:44;;;;;;;2.27;1.60;;;15.30;99.90;;;;;;5045980;28;20509;-84
2021/10/04 03:10:11;;;;;;;2.37;1.60;;;15.30;99.90;;;;;;5047497;28;20541;-86
2021/10/04 03:12:39;;;;;;;1.50;1.40;;;15.30;99.90;;;;;;5045645;28;20979;-85
2021/10/04 03:15:07;;;;;;;2.23;1.60;;;15.30;99.90;;;;;;5044867;28;20726;-84
2021/10/04 03:17:34;;;;;;;2.23;2.03;;;15.30;99.90;;;;;;5040317;28;20516;-84
2021/10/04 03:20:02;;;;;;;1.83;1.73;;;15.30;99.90;;;;;;5044758;28;20491;-84
2021/10/04 03:22:31;;;;;;;2.90;1.83;;;15.30;99.90;;;;;;5045224;28;20474;-84
2021/10/04 03:24:58;;;;;;;6.47;1.97;;;15.30;99.90;;;;;;5048115;28;21006;-85
2021/10/04 03:27:25;;;;;;;4.40;1.70;;;15.30;99.90;;;;;;5044521;28;20521;-85
2021/10/04 03:29:53;;;;;;;3.40;1.93;;;15.30;99.90;;;;;;5040548;28;20950;-87
2021/10/04 03:32:20;;;;;;;3.40;1.60;;;15.30;99.90;;;;;;5043848;28;20454;-84
2021/10/04 03:34:47;;;;;;;1.60;1.50;;;15.30;99.90;;;;;;5045036;28;20570;-85
2021/10/04 03:37:16;;;;;;;1.93;1.70;;;15.30;99.90;;;;;;5036380;28;20963;-86
2021/10/04 03:39:45;;;;;;;2.33;1.83;;;15.30;99.90;;;;;;5042064;28;20479;-87
2021/10/04 03:42:12;;;;;;;2.43;1.90;;;15.30;99.90;;;;;;5045658;28;20549;-86
2021/10/04 03:44:40;;;;;;;2.17;1.70;;;15.30;99.90;;;;;;5043630;28;20450;-86
2021/10/04 03:47:07;;;;;;;3.43;2.57;;;15.30;99.90;;;;;;5040170;28;20537;-85
2021/10/04 03:49:34;;;;;;;13.63;1.90;;;15.30;99.90;;;;;;5042934;28;20496;-85
2021/10/04 03:52:01;;;;;;;1.70;1.60;;;15.30;99.90;;;;;;5042862;28;20795;-86
2021/10/04 03:54:30;;;;;;;1.93;1.73;;;15.30;99.90;;;;;;5031970;28;20463;-86
2021/10/04 03:56:58;;;;;;;2.73;1.60;;;15.30;99.90;;;;;;5040565;28;20490;-87
2021/10/04 03:59:25;;;;;;;2.00;1.90;;;15.30;99.90;;;;;;5042091;28;20519;-85
2021/10/04 04:01:53;;;;;;;1.70;1.60;;;15.30;99.90;;;;;;5031750;28;20544;-85
2021/10/04 04:04:21;;;;;;;4.30;1.90;;;15.30;99.90;;;;;;5035352;28;20508;-86
2021/10/04 04:06:48;;;;;;;3.33;1.83;;;15.30;99.90;;;;;;5037091;28;20490;-87
2021/10/04 04:09:15;;;;;;;2.10;1.90;;;15.30;99.90;;;;;;5038138;28;20504;-85
2021/10/04 04:11:42;;;;;;;4.67;1.80;;;15.30;99.90;;;;;;5036136;28;20808;-86
2021/10/04 04:14:11;;;;;;;7.50;2.17;;;15.30;99.90;;;;;;5042836;28;20470;-85
2021/10/04 04:16:38;;;;;;;2.13;1.77;;;15.30;99.90;;;;;;5042612;28;21050;-85
2021/10/04 04:19:05;;;;;;;5.43;2.30;;;15.30;99.90;;;;;;5044618;28;20864;-86
2021/10/04 04:21:34;;;;;;;2.33;2.20;;;15.30;99.90;;;;;;5041420;28;20514;-85
2021/10/04 04:24:01;;;;;;;3.10;1.90;;;15.30;99.90;;;;;;5035496;28;20869;-86
2021/10/04 04:26:28;;;;;;;2.57;1.90;;;15.30;99.90;;;;;;5039182;28;20549;-87
2021/10/04 04:28:55;;;;;;;2.30;2.10;;;15.30;99.90;;;;;;5035612;28;20513;-85
2021/10/04 04:31:24;;;;;;;2.70;2.20;;;15.30;99.90;;;;;;5042979;28;20466;-86
2021/10/04 04:33:52;;;;;;;2.97;2.00;;;15.20;99.90;;;;;;5045245;28;20487;-87
2021/10/04 04:36:19;;;;;;;3.73;1.90;;;15.20;99.90;;;;;;5042930;28;20851;-87
2021/10/04 04:38:47;;;;;;;3.73;2.27;;;15.20;99.90;;;;;;5040220;28;20489;-87
2021/10/04 04:41:14;;;;;;;2.43;2.30;;;15.20;99.90;;;;;;5039371;28;20462;-88
2021/10/04 04:43:41;;;;;;;2.10;1.90;;;15.20;99.90;;;;;;5035701;28;20458;-88
2021/10/04 04:46:09;;;;;;;2.70;2.50;;;15.20;99.90;;;;;;5046381;28;20833;-87
2021/10/04 04:48:39;;;;;;;5.17;2.30;;;15.20;99.90;;;;;;5035232;28;21139;-87
2021/10/04 04:51:07;;;;;;;2.50;2.30;;;15.20;99.90;;;;;;5040479;28;20467;-86
2021/10/04 04:53:36;;;;;;;2.30;2.20;;;15.20;99.90;;;;;;5041859;28;20835;-86
2021/10/04 04:56:03;;;;;;;2.53;2.33;;;15.20;99.90;;;;;;5043596;28;20465;-87
2021/10/04 04:58:31;;;;;;;2.87;1.93;;;15.10;99.90;;;;;;5041833;28;20549;-89
2021/10/04 05:00:58;;;;;;;2.80;2.33;;;15.20;99.90;;;;;;5039224;28;20487;-86
2021/10/04 05:03:25;;;;;;;2.57;2.10;;;15.10;99.90;;;;;;5036437;28;20455;-89
2021/10/04 05:05:54;;;;;;;2.47;2.27;;;15.20;99.90;;;;;;5036721;28;20497;-87
2021/10/04 05:08:21;;;;;;;2.77;2.10;;;15.10;99.90;;;;;;5035812;28;20507;-86
2021/10/04 05:10:48;;;;;;;10.23;2.60;;;15.20;99.90;;;;;;5037489;28;20625;-86
2021/10/04 05:13:15;;;;;;;3.53;2.13;;;15.10;99.90;;;;;;5039134;28;20462;-86
2021/10/04 05:15:42;;;;;;;2.60;2.17;;;15.10;99.90;;;;;;5044026;28;20535;-88
2021/10/04 05:18:10;;;;;;;3.63;2.27;;;15.10;99.90;;;;;;5036698;28;20542;-87
2021/10/04 05:20:37;;;;;;;2.73;2.23;;;15.10;99.90;;;;;;5034684;28;21234;-86
2021/10/04 05:23:05;;;;;;;3.20;2.60;;;15.10;99.90;;;;;;5029447;28;20577;-87
2021/10/04 05:25:32;;;;;;;2.93;2.37;;;15.10;99.90;;;;;;5036779;28;20509;-87
2021/10/04 05:27:59;;;;;;;2.30;2.10;;;15.20;99.90;;;;;;5042680;28;20487;-88
2021/10/04 05:30:27;;;;;;;3.00;2.70;;;15.20;99.90;;;;;;5040033;28;20538;-87
2021/10/04 05:32:54;;;;;;;2.97;2.73;;;15.20;99.90;;;;;;5044447;28;20554;-88
2021/10/04 05:35:21;;;;;;;5.90;3.70;;;15.20;99.90;;;;;;5039771;28;20568;-86
2021/10/04 05:37:49;;;;;;;14.13;9.37;;;15.20;99.90;;;;;;5041069;28;20464;-88
2021/10/04 05:40:18;;;;;;;6.73;5.43;;;15.20;99.90;;;;;;5042247;28;20461;-89
2021/10/04 05:42:45;;;;;;;6.13;3.80;;;15.30;99.90;;;;;;5042215;28;20497;-86
2021/10/04 05:45:15;;;;;;;5.13;2.73;;;15.40;99.90;;;;;;5042393;28;20459;-87
2021/10/04 05:47:43;;;;;;;11.03;3.47;;;15.50;99.90;;;;;;5038093;28;20495;-87
2021/10/04 05:50:12;;;;;;;17.03;7.33;;;15.40;99.90;;;;;;5042127;28;20462;-90
2021/10/04 05:52:39;;;;;;;12.07;7.07;;;15.40;99.90;;;;;;5038096;28;20470;-89
2021/10/04 05:55:08;;;;;;;10.87;4.00;;;15.50;99.90;;;;;;5042015;28;20463;-87
2021/10/04 05:57:38;;;;;;;4.07;2.70;;;15.60;99.90;;;;;;5040982;28;20468;-88
2021/10/04 06:00:07;;;;;;;3.47;3.13;;;15.50;99.90;;;;;;5045351;28;20542;-90
2021/10/04 06:02:35;;;;;;;5.67;3.00;;;15.50;99.90;;;;;;5035502;28;20471;-87
2021/10/04 06:05:02;;;;;;;4.57;4.17;;;15.40;99.90;;;;;;5023893;28;20536;-89
2021/10/04 06:07:30;;;;;;;23.97;13.97;;;15.40;99.90;;;;;;5036890;28;20488;-88
2021/10/04 06:09:57;;;;;;;14.40;8.73;;;15.30;99.90;;;;;;5029511;28;20477;-92
2021/10/04 06:12:26;;;;;;;9.30;6.83;;;15.30;99.90;;;;;;5035130;28;20849;-89
2021/10/04 06:14:55;;;;;;;9.27;4.40;;;15.20;99.90;;;;;;5032183;28;20456;-86
2021/10/04 06:17:23;;;;;;;10.67;6.60;;;15.20;99.90;;;;;;5038596;28;20549;-88
2021/10/04 06:19:50;;;;;;;66.03;40.00;;;15.20;99.90;;;;;;5027902;28;20463;-89
2021/10/04 06:22:18;;;;;;;1999.90;701.30;;;15.20;99.90;;;;;;5039248;28;20529;-86
2021/10/04 06:24:45;;;;;;;1999.90;672.60;;;15.30;99.90;;;;;;5033311;28;20486;-87
2021/10/04 15:15:28;;;;;;;125.90;14.90;;;17.10;99.90;;;;;;5115129;27;21082;-60
2021/10/04 15:17:54;;;;;;;191.00;27.23;;;17.20;99.90;;;;;;5105045;27;20456;-60
2021/10/04 15:20:21;;;;;;;72.40;11.97;;;17.20;99.90;;;;;;5099397;28;20462;-63
2021/10/04 15:22:48;;;;;;;140.43;22.30;;;17.30;99.90;;;;;;5101136;28;20470;-61
2021/10/04 15:25:15;;;;;;;23.87;5.50;;;17.50;99.90;;;;;;5103760;28;21195;-61
2021/10/04 15:27:41;;;;;;;80.87;9.57;;;17.70;99.90;;;;;;5101573;28;20467;-59
2021/10/04 15:30:09;;;;;;;17.07;6.50;;;17.90;99.90;;;;;;5101526;27;20466;-60
2021/10/04 15:32:37;;;;;;;24.30;8.73;;;18.00;99.90;;;;;;5099359;28;20547;-58
2021/10/04 15:35:05;;;;;;;23.57;9.03;;;18.10;99.90;;;;;;5099765;28;20475;-61
2021/10/04 15:37:31;;;;;;;11.20;5.60;;;18.20;99.90;;;;;;5102394;28;20470;-61
2021/10/04 15:39:58;;;;;;;19.20;6.13;;;18.30;99.90;;;;;;5102598;28;20460;-58
2021/10/04 15:42:25;;;;;;;10.87;3.43;;;18.40;99.90;;;;;;5104386;28;20504;-58
2021/10/04 15:44:52;;;;;;;14.27;5.57;;;18.40;99.90;;;;;;5100833;27;20480;-61
2021/10/04 15:47:19;;;;;;;17.80;5.80;;;18.40;99.90;;;;;;5099221;27;20458;-61
2021/10/04 15:49:48;;;;;;;7.27;3.60;;;18.50;99.90;;;;;;5108854;28;20460;-60
2021/10/04 15:52:15;;;;;;;6.50;2.97;;;18.50;99.90;;;;;;5108342;27;20500;-61
2021/10/04 15:54:42;;;;;;;9.00;3.60;;;18.60;99.90;;;;;;5102396;28;20465;-60
2021/10/04 15:57:09;;;;;;;4.43;3.40;;;18.50;99.90;;;;;;5098132;28;20475;-61
2021/10/04 15:59:35;;;;;;;7.00;3.70;;;18.50;99.80;;;;;;5099507;28;20475;-61
2021/10/04 16:02:02;;;;;;;8.47;3.80;;;18.50;99.80;;;;;;5102315;28;20457;-61
2021/10/04 16:04:29;;;;;;;4.13;2.90;;;18.50;99.70;;;;;;5099136;27;20476;-60
2021/10/04 16:06:58;;;;;;;11.37;4.93;;;18.50;99.60;;;;;;5094773;28;20491;-60
2021/10/04 16:09:26;;;;;;;8.87;4.20;;;18.50;99.60;;;;;;5096919;28;21142;-61
2021/10/04 16:11:53;;;;;;;7.13;2.70;;;18.50;99.60;;;;;;5097585;28;20457;-61
2021/10/04 16:14:19;;;;;;;3.90;2.50;;;18.50;99.60;;;;;;5101013;28;20483;-59
2021/10/04 16:16:46;;;;;;;6.40;2.30;;;18.50;99.60;;;;;;5101365;28;20487;-61
2021/10/04 16:19:13;;;;;;;4.10;3.13;;;18.50;99.60;;;;;;5102203;28;20467;-61
2021/10/04 16:21:39;;;;;;;4.57;2.30;;;18.50;99.50;;;;;;5104798;28;20465;-61
2021/10/04 16:24:12;;;;;;;6.27;3.10;;;18.40;99.40;;;;;;5104807;27;20472;-60
2021/10/04 16:26:38;;;;;;;2.47;2.27;;;18.40;99.40;;;;;;5091994;28;20475;-61
2021/10/04 16:29:05;;;;;;;8.20;3.90;;;18.40;99.50;;;;;;5092091;28;20468;-61
2021/10/04 16:31:32;;;;;;;6.00;3.30;;;18.40;99.50;;;;;;5092589;28;20802;-59
2021/10/04 16:33:59;;;;;;;9.77;3.77;;;18.40;99.50;;;;;;5090703;28;20515;-60
2021/10/04 16:36:27;;;;;;;4.73;2.10;;;18.40;99.50;;;;;;5093380;28;20471;-59
2021/10/04 16:38:54;;;;;;;3.13;2.40;;;18.30;99.30;;;;;;5095656;28;20469;-61
2021/10/04 16:41:22;;;;;;;5.97;2.10;;;18.30;99.30;;;;;;5097427;28;20479;-61
2021/10/04 16:43:48;;;;;;;2.30;2.10;;;18.30;99.30;;;;;;5097971;28;20485;-59
2021/10/04 16:46:15;;;;;;;3.83;2.10;;;18.20;99.20;;;;;;5098154;28;21304;-60
2021/10/04 16:48:43;;;;;;;2.60;2.40;;;18.20;99.30;;;;;;5097913;28;20459;-59
2021/10/04 16:51:10;;;;;;;5.53;2.07;;;18.20;99.20;;;;;;5100595;28;20556;-61
2021/10/04 16:53:36;;;;;;;9.20;2.10;;;18.20;99.20;;;;;;5092811;28;20464;-59
2021/10/04 16:56:04;;;;;;;3.83;2.10;;;18.10;99.20;;;;;;5098703;28;21165;-60
2021/10/04 16:58:32;;;;;;;2.10;2.00;;;18.10;99.20;;;;;;5097259;28;20488;-59
2021/10/04 17:00:59;;;;;;;2.83;2.10;;;18.10;99.00;;;;;;5098053;28;20459;-60
2021/10/04 17:03:26;;;;;;;4.70;1.93;;;18.10;99.10;;;;;;5095561;28;20467;-57
2021/10/04 17:05:53;;;;;;;2.07;1.87;;;18.00;99.10;;;;;;5093334;28;20487;-59
2021/10/04 17:08:19;;;;;;;4.40;2.20;;;18.00;99.00;;;;;;5094435;28;20465;-59
2021/10/04 17:10:46;;;;;;;3.90;3.17;;;17.90;99.00;;;;;;5095353;28;20464;-60
2021/10/04 17:13:13;;;;;;;4.73;2.77;;;17.90;99.00;;;;;;5098230;28;20965;-61
2021/10/04 17:15:41;;;;;;;4.50;2.37;;;17.90;99.00;;;;;;5096989;28;20459;-61
2021/10/04 17:18:09;;;;;;;3.20;2.90;;;17.90;98.90;;;;;;5092392;28;20467;-61
2021/10/04 17:20:36;;;;;;;4.80;4.40;;;17.80;98.90;;;;;;5093221;28;20457;-61
2021/10/04 17:23:03;;;;;;;3.00;2.80;;;17.80;98.90;;;;;;5091299;28;20465;-61
2021/10/04 17:25:30;;;;;;;2.97;2.77;;;17.80;98.90;;;;;;5097139;28;20566;-60
2021/10/04 17:27:57;;;;;;;2.37;2.17;;;17.70;98.90;;;;;;5095494;28;20807;-61
2021/10/04 17:30:24;;;;;;;7.73;2.20;;;17.70;98.90;;;;;;5100213;28;20482;-61
2021/10/04 17:32:52;;;;;;;2.50;1.80;;;17.70;98.80;;;;;;5096836;28;20475;-60
2021/10/04 17:35:19;;;;;;;3.27;2.30;;;17.60;98.70;;;;;;5095981;28;20467;-58
2021/10/04 17:37:46;;;;;;;3.60;3.10;;;17.60;98.80;;;;;;5097199;28;21040;-61
2021/10/04 17:40:14;;;;;;;3.57;3.27;;;17.60;98.70;;;;;;5095058;28;20468;-60
2021/10/04 17:42:41;;;;;;;2.93;2.73;;;17.60;98.80;;;;;;5096080;28;20475;-61
2021/10/04 17:45:10;;;;;;;3.00;2.40;;;17.60;98.70;;;;;;5092264;28;20713;-61
2021/10/04 17:47:38;;;;;;;2.93;2.13;;;17.50;98.70;;;;;;5094768;28;20463;-61
2021/10/04 17:50:08;;;;;;;3.20;2.50;;;17.50;98.70;;;;;;5097351;28;20468;-61
2021/10/04 17:52:35;;;;;;;6.03;2.20;;;17.50;98.60;;;;;;5095371;28;20466;-61
2021/10/04 17:55:03;;;;;;;6.17;2.40;;;17.50;98.70;;;;;;5092974;28;20581;-61
2021/10/04 17:57:30;;;;;;;2.53;2.33;;;17.50;98.70;;;;;;5096924;28;20469;-61
2021/10/04 17:59:56;;;;;;;3.60;2.87;;;17.40;98.60;;;;;;5097113;28;20474;-61
2021/10/04 18:02:23;;;;;;;3.40;2.60;;;17.40;98.70;;;;;;5097818;28;20961;-60
2021/10/04 18:04:50;;;;;;;2.50;2.27;;;17.40;98.70;;;;;;5097281;28;20475;-61
2021/10/04 18:07:18;;;;;;;5.73;2.20;;;17.40;98.60;;;;;;5092519;28;20466;-61
2021/10/04 18:09:46;;;;;;;3.30;2.13;;;17.30;98.70;;;;;;5095316;28;20555;-60
2021/10/04 18:12:13;;;;;;;4.30;2.10;;;17.30;98.60;;;;;;5096093;28;20482;-61
2021/10/04 18:14:41;;;;;;;2.50;2.30;;;17.30;98.60;;;;;;5094205;28;20491;-61
2021/10/04 18:17:07;;;;;;;2.60;2.07;;;17.30;98.60;;;;;;5096286;28;20470;-60
2021/10/04 18:19:34;;;;;;;6.40;2.40;;;17.20;98.60;;;;;;5092480;28;20469;-61
2021/10/04 18:22:01;;;;;;;4.93;2.60;;;17.20;98.60;;;;;;5093601;28;20458;-61
2021/10/04 18:24:29;;;;;;;5.90;3.20;;;17.20;98.50;;;;;;5091737;28;20504;-61
2021/10/04 18:26:58;;;;;;;4.47;2.30;;;17.20;98.70;;;;;;5096662;28;20464;-58
2021/10/04 18:29:25;;;;;;;2.70;2.23;;;17.20;98.70;;;;;;5096925;28;21042;-59
2021/10/04 18:31:52;;;;;;;2.83;2.40;;;17.20;98.70;;;;;;5097844;28;20467;-59
2021/10/04 18:34:19;;;;;;;2.20;2.10;;;17.10;98.60;;;;;;5089439;28;20487;-60
2021/10/04 18:36:45;;;;;;;5.20;2.33;;;17.10;98.70;;;;;;5094169;28;20466;-58
2021/10/04 18:39:13;;;;;;;3.57;2.00;;;17.10;98.70;;;;;;5096204;28;20831;-59
2021/10/04 18:41:41;;;;;;;3.00;2.40;;;17.10;98.60;;;;;;5095725;28;20541;-60
2021/10/04 18:44:08;;;;;;;3.70;2.90;;;17.10;98.60;;;;;;5092637;28;20827;-58
2021/10/04 18:46:36;;;;;;;6.53;3.23;;;17.10;98.60;;;;;;5091847;28;20470;-61
2021/10/04 18:49:03;;;;;;;3.00;2.30;;;17.00;98.60;;;;;;5091801;28;20768;-58
2021/10/04 18:51:30;;;;;;;6.20;2.70;;;17.00;98.70;;;;;;5095221;28;20467;-61
2021/10/04 18:53:59;;;;;;;6.43;3.70;;;17.00;98.60;;;;;;5095839;28;20969;-59
2021/10/04 18:56:26;;;;;;;12.83;4.53;;;17.00;98.60;;;;;;5097977;28;20461;-61
2021/10/04 18:58:54;;;;;;;12.27;4.47;;;16.90;98.60;;;;;;5091255;28;20462;-59
2021/10/04 19:01:21;;;;;;;4.30;3.10;;;16.90;98.70;;;;;;5090177;28;20455;-61
2021/10/04 19:03:48;;;;;;;7.33;3.40;;;16.90;98.80;;;;;;5095975;28;20835;-61
2021/10/04 19:06:15;;;;;;;4.10;2.90;;;16.90;98.70;;;;;;5096687;28;20835;-61
2021/10/04 19:08:42;;;;;;;2.90;2.70;;;16.80;98.70;;;;;;5092996;28;20462;-61
2021/10/04 19:11:09;;;;;;;7.83;3.30;;;16.80;98.70;;;;;;5085409;28;21159;-61
2021/10/04 19:13:36;;;;;;;3.80;2.63;;;16.80;98.70;;;;;;5087624;28;20483;-60
2021/10/04 19:16:04;;;;;;;11.77;3.03;;;16.80;98.70;;;;;;5083775;28;20453;-59
2021/10/04 19:18:31;;;;;;;9.60;2.47;;;16.80;98.80;;;;;;5085067;28;20469;-61
2021/10/04 19:20:58;;;;;;;4.77;2.70;;;16.80;98.90;;;;;;5081964;28;20472;-60
2021/10/04 19:23:24;;;;;;;3.43;2.17;;;16.80;98.80;;;;;;5088009;28;20482;-61
2021/10/04 19:25:51;;;;;;;2.73;2.53;;;16.80;98.90;;;;;;5085940;28;20486;-59
2021/10/04 19:28:18;;;;;;;5.60;3.50;;;16.80;98.80;;;;;;5085688;28;20468;-61
2021/10/04 19:30:45;;;;;;;3.03;2.73;;;16.80;98.70;;;;;;5085591;28;20464;-61
2021/10/04 19:33:13;;;;;;;4.03;2.57;;;16.70;98.60;;;;;;5091489;28;20470;-60
2021/10/04 19:35:41;;;;;;;6.73;3.00;;;16.70;98.60;;;;;;5095602;28;20480;-61
2021/10/04 19:38:08;;;;;;;4.03;3.10;;;16.70;98.70;;;;;;5090838;28;20491;-61
2021/10/04 19:40:35;;;;;;;5.13;2.90;;;16.70;98.70;;;;;;5090540;28;20461;-59
2021/10/04 19:43:02;;;;;;;5.13;2.70;;;16.70;98.70;;;;;;5089908;28;20469;-61
2021/10/04 19:45:29;;;;;;;4.37;2.80;;;16.70;98.60;;;;;;5094015;28;20469;-60
2021/10/04 19:47:56;;;;;;;2.53;2.33;;;16.70;98.70;;;;;;5091999;28;20971;-59
2021/10/04 19:50:24;;;;;;;3.87;2.50;;;16.70;98.70;;;;;;5096206;28;20464;-60
2021/10/04 19:52:50;;;;;;;3.53;2.47;;;16.70;98.80;;;;;;5093134;28;20459;-60
2021/10/04 19:55:20;;;;;;;7.37;2.90;;;16.70;98.90;;;;;;5091543;28;20464;-60
2021/10/04 19:57:47;;;;;;;5.17;2.90;;;16.70;98.90;;;;;;5089965;28;20464;-60
2021/10/04 20:00:15;;;;;;;8.10;2.30;;;16.70;98.90;;;;;;5093816;28;20466;-59
2021/10/04 20:02:44;;;;;;;4.00;2.47;;;16.70;98.80;;;;;;5099467;28;20458;-60
2021/10/04 20:05:11;;;;;;;2.60;2.10;;;16.70;98.80;;;;;;5096606;28;20565;-60
2021/10/04 20:07:40;;;;;;;4.20;2.63;;;16.60;98.80;;;;;;5094604;28;20463;-58
2021/10/04 20:10:08;;;;;;;2.90;2.30;;;16.60;98.80;;;;;;5093288;28;20466;-58
2021/10/04 20:12:34;;;;;;;6.50;2.40;;;16.60;98.80;;;;;;5092567;28;20461;-58
2021/10/04 20:15:01;;;;;;;6.30;2.53;;;16.60;98.80;;;;;;5095014;28;20854;-60
2021/10/04 20:17:28;;;;;;;3.70;2.27;;;16.60;98.90;;;;;;5099463;28;20847;-60
2021/10/04 20:19:55;;;;;;;3.83;2.13;;;16.60;98.90;;;;;;5094620;28;20456;-56
2021/10/04 20:22:22;;;;;;;3.70;2.40;;;16.50;98.90;;;;;;5094094;28;20485;-59
2021/10/04 20:24:54;;;;;;;7.20;2.50;;;16.50;98.90;;;;;;5094347;28;20516;-58
2021/10/04 20:27:21;;;;;;;2.70;2.50;;;16.50;98.90;;;;;;5089707;28;20453;-59
2021/10/04 20:29:47;;;;;;;2.00;1.90;;;16.50;99.20;;;;;;5095950;28;20458;-60
2021/10/04 20:32:14;;;;;;;5.63;2.70;;;16.40;99.00;;;;;;5095991;28;21354;-58
2021/10/04 20:34:41;;;;;;;2.70;2.50;;;16.40;99.00;;;;;;5092343;28;20827;-60
2021/10/04 20:37:08;;;;;;;2.93;2.50;;;16.40;99.10;;;;;;5094560;27;20467;-59
2021/10/04 20:39:35;;;;;;;13.47;2.40;;;16.40;99.10;;;;;;5090373;28;20462;-60
2021/10/04 20:42:04;;;;;;;4.03;2.57;;;16.40;99.10;;;;;;5096327;28;20458;-59
2021/10/04 20:44:30;;;;;;;3.37;2.23;;;16.40;99.20;;;;;;5090392;28;21060;-61
2021/10/04 20:46:57;;;;;;;3.73;2.40;;;16.40;99.20;;;;;;5093168;28;20478;-59
2021/10/04 20:49:24;;;;;;;2.90;2.60;;;16.40;99.30;;;;;;5090003;28;20454;-58
2021/10/04 20:51:51;;;;;;;10.37;3.83;;;16.40;99.30;;;;;;5092821;28;20471;-59
2021/10/04 20:54:20;;;;;;;6.07;2.60;;;16.30;99.20;;;;;;5097358;28;21076;-60
2021/10/04 20:56:47;;;;;;;7.33;2.43;;;16.30;99.30;;;;;;5094525;28;20457;-61
2021/10/04 20:59:15;;;;;;;4.70;2.57;;;16.30;99.30;;;;;;5094575;28;20468;-58
2021/10/04 21:01:42;;;;;;;5.60;2.80;;;16.30;99.40;;;;;;5092861;28;20467;-59
2021/10/04 21:04:11;;;;;;;9.63;2.80;;;16.30;99.40;;;;;;5093984;28;20462;-58
2021/10/04 21:06:37;;;;;;;12.67;4.40;;;16.30;99.40;;;;;;5095387;28;20765;-58
2021/10/04 21:09:04;;;;;;;12.70;4.60;;;16.30;99.50;;;;;;5098411;28;20561;-60
2021/10/04 21:11:31;;;;;;;12.00;3.23;;;16.30;99.50;;;;;;5098428;28;20460;-58
2021/10/04 21:13:58;;;;;;;10.50;3.97;;;16.20;99.40;;;;;;5095157;28;20923;-58
2021/10/04 21:16:26;;;;;;;5.63;3.03;;;16.20;99.40;;;;;;5096291;28;20467;-60
2021/10/04 21:18:53;;;;;;;17.13;3.63;;;16.20;99.50;;;;;;5094058;28;20887;-60
2021/10/04 21:21:20;;;;;;;4.90;3.50;;;16.20;99.50;;;;;;5097932;28;20831;-59
2021/10/04 21:23:46;;;;;;;10.10;3.40;;;16.30;99.50;;;;;;5097985;28;20467;-60
2021/10/04 21:26:13;;;;;;;9.80;3.13;;;16.30;99.60;;;;;;5097547;28;20485;-59
2021/10/04 21:28:40;;;;;;;3.20;2.83;;;16.30;99.60;;;;;;5096006;28;20469;-60
2021/10/04 21:31:07;;;;;;;5.30;2.83;;;16.30;99.50;;;;;;5088377;28;20461;-57
2021/10/04 21:33:35;;;;;;;6.93;3.10;;;16.30;99.60;;;;;;5096374;28;20466;-60